Pittsfield, MA (01201)

6:44 AM EST on November 28, 2014 (GMT -0500)
NW Downtown Pittsfield | Change Station
CLOSE
Current Station
Personal Weather Station
Location: Pittsfield, MA
Elevation: 1030 ft
Nearby Weather Stations

Elev 1030 ft 42.46 °N, 73.25 °W | Updated 10 minutes ago

Overcast
Overcast
25.1 °F
Feels Like 25 °F
N
0.0
Wind Variable Wind from South
Gusts 0.0 mph

Today
High -- | Low -- °F
--% Chance of Precip.
Yesterday
High -- | Low -- °F
Precip. -- in
6:59 AM 4:22 PM
Waxing Crescent, 39% visible
Pressure 30.00 in
Visibility 9.0 miles
Clouds Overcast 1000 ft
Windchill 25 °F
Dew Point 23 °F
Humidity 90%
Rainfall 0.00 in
Snow Depth Not available.
UV 0 out of 12
Pollen .10 out of 12
Air Quality Not available.
Flu Activity Not available.
SPECI KPSF 281114Z AUTO 30006KT 9SM OVC010 M04/M06 A3000 RMK AO2 SNB02E11 CIG 008V012 P0000 T10391056

More Conditions Fewer Conditions

Pressure 30.00 in
Visibility 9.0 miles
Clouds Overcast 1000 ft
Windchill 25 °F
Dew Point 23 °F
Humidity 90%
Rainfall 0.00 in
Snow Depth Not available.
UV 0 out of 12
Pollen .10 out of 12
Air Quality Not available.
Flu Activity Not available.
SPECI KPSF 281114Z AUTO 30006KT 9SM OVC010 M04/M06 A3000 RMK AO2 SNB02E11 CIG 008V012 P0000 T10391056

More Conditions Fewer Conditions

10-Day Weather Forecast

Almanac

Astronomy

Nov. 28, 2014 Rise Set
Actual Time
Civil Twilight
Nautical Twilight
Astronomical Twilight
Moon
Length of Visible Light
Length of Day
Tomorrow will be .
, % of the Moon is Illuminated

Today's Extremes

State Highs State Lows

Community

WunderPhotos

Upload Photos

1,774,198 photos uploaded!

WunderBlogs® & News

Nearby

Air Quality

  Air Quality AQ Index Pollutant
Not available.

Snow Depth

Station Depth Elevation

Earthquake Activity

City Distance Mag. Time & Date
Minimum magnitude displayed is 2.5.

Coastal Water Temperatures

Place Temperature

Nearby Weather Stations